createdAt,value
2019-03-20T00:27:06.526Z,76.70
2019-03-20T00:57:10.394Z,77.40
2019-03-20T01:27:14.252Z,79.80
2019-03-20T01:57:18.110Z,81.80
2019-03-20T02:27:21.834Z,84.00
2019-03-20T02:57:25.557Z,84.80
2019-03-20T03:27:29.253Z,85.70
2019-03-20T03:57:33.051Z,88.90
2019-03-20T04:27:36.965Z,87.20
2019-03-20T04:57:40.947Z,88.80
2019-03-20T05:27:44.934Z,90.60
2019-03-20T05:57:48.711Z,91.80
2019-03-20T06:27:53.097Z,91.30
2019-03-20T06:57:57.211Z,91.20
2019-03-20T07:28:01.038Z,83.30
2019-03-20T07:58:05.185Z,72.50
2019-03-20T08:28:08.953Z,68.40
2019-03-20T08:58:12.738Z,58.40
2019-03-20T09:28:16.517Z,45.20
2019-03-20T09:58:21.682Z,40.80
2019-03-20T10:28:25.438Z,43.00
2019-03-20T10:58:29.319Z,34.10
2019-03-20T11:28:33.059Z,42.80
2019-03-20T11:58:36.871Z,47.50
2019-03-20T12:28:40.703Z,43.20
2019-03-20T12:58:44.486Z,43.30
2019-03-20T13:28:48.323Z,42.40
2019-03-20T13:58:52.487Z,43.30
2019-03-20T14:28:56.214Z,45.30
2019-03-20T14:59:00.732Z,45.00
2019-03-20T15:29:05.567Z,46.60
2019-03-20T15:59:09.481Z,44.70
2019-03-20T16:29:13.500Z,46.10
2019-03-20T16:59:18.715Z,47.10
2019-03-20T17:29:22.622Z,48.10
2019-03-20T17:59:26.440Z,50.50
2019-03-20T18:29:31.003Z,52.30
2019-03-20T18:59:35.070Z,55.80
2019-03-20T19:29:38.891Z,57.80
2019-03-20T19:59:42.755Z,58.90
2019-03-20T20:29:46.665Z,60.40
2019-03-20T20:59:50.617Z,64.60
2019-03-20T21:30:13.871Z,67.20
2019-03-20T22:00:52.701Z,66.50
2019-03-20T22:30:55.778Z,67.50
2019-03-20T23:01:01.432Z,67.40
2019-03-20T23:31:05.350Z,67.30
